Le Ray, New York
Current Conditions -  °F | °C
As of 3:23 PM on Tuesday 21 Oct 2014 (Local Time) from KGTB Reporting Station
Overcast Overcast  
Wind Chill: 41°   Ceiling: 400
Heat Index: 46°   Visibility: 9mi
Dew Point: 45°   Wind: 13mph
Humidity: 93%   Direction: 40°NE
Pressure: 29.92"   Gusts: NA
Location:  44.0981°N, 75.8331°W
Report Text: KGTB 211923Z AUTO 04011KT 9SM OVC004 08/07 A2992 RMK AO2
Loading
Personal Weather Stations






























Interactive Weather Map
Tropical Storm Tracking
New forecast layout! Learn more

10-Day Weather Forecast

Advertisements
Track Severe Weather on mobile